Time;durP1;ratioP1;P1;durP2;ratioP2;P2;SDS_P1;SDS_P2;PMS_P1;PMS_P2;Temp;Humidity;BMP_temperature;BMP_pressure;BME280_temperature;BME280_humidity;BME280_pressure;Samples;Min_cycle;Max_cycle;Signal;HPM_P1;HPM_P2
2023/09/24 00:02:10;;;;;;;6.28;3.53;;;10.40;99.90;;;9.95;100.00;97957.72;5034614;28;20116;-39
2023/09/24 00:04:36;;;;;;;11.25;5.55;;;10.30;99.90;;;9.95;100.00;97960.34;5031184;28;20093;-38
2023/09/24 00:07:02;;;;;;;7.55;4.15;;;10.30;99.90;;;9.93;100.00;97959.53;5032503;28;20493;-38
2023/09/24 00:09:28;;;;;;;11.93;6.25;;;10.30;99.90;;;9.90;100.00;97965.72;5033760;28;20043;-38
2023/09/24 00:11:54;;;;;;;8.40;4.32;;;10.30;99.90;;;9.89;100.00;97965.78;5034173;28;20451;-38
2023/09/24 00:14:20;;;;;;;7.75;2.83;;;10.30;99.90;;;9.87;100.00;97962.31;5031007;28;20437;-39
2023/09/24 00:16:46;;;;;;;9.27;3.88;;;10.30;99.90;;;9.86;100.00;97969.34;5032560;28;20037;-39
2023/09/24 00:19:11;;;;;;;9.38;5.28;;;10.20;99.90;;;9.82;100.00;97967.72;5031388;28;20040;-38
2023/09/24 00:21:37;;;;;;;9.32;4.18;;;10.30;99.90;;;9.83;100.00;97972.06;5033722;28;20124;-38
2023/09/24 00:24:03;;;;;;;9.55;5.18;;;10.20;99.90;;;9.83;100.00;97979.09;5026304;28;20029;-38
2023/09/24 00:26:29;;;;;;;12.57;5.45;;;10.20;99.90;;;9.80;100.00;97982.69;5025879;28;20040;-38
2023/09/24 00:28:56;;;;;;;6.25;3.63;;;10.20;99.90;;;9.77;100.00;97977.50;5032008;28;20116;-38
2023/09/24 00:31:22;;;;;;;10.20;4.45;;;10.20;99.90;;;9.74;100.00;97983.72;5029721;28;20033;-41
2023/09/24 00:33:48;;;;;;;5.65;3.20;;;10.20;99.90;;;9.72;100.00;97977.59;5029085;28;20044;-42
2023/09/24 00:36:15;;;;;;;3.85;2.28;;;10.10;99.90;;;9.69;100.00;97985.59;5031360;28;20029;-39
2023/09/24 00:38:41;;;;;;;1.60;1.40;;;10.10;99.90;;;9.65;100.00;97986.53;5037321;28;20036;-40
2023/09/24 00:41:07;;;;;;;2.17;1.35;;;10.10;99.90;;;9.57;100.00;97975.34;5017340;28;20147;-39
2023/09/24 00:43:35;;;;;;;2.88;1.10;;;10.00;99.90;;;9.58;100.00;97977.06;5036414;28;20444;-38
2023/09/24 00:46:04;;;;;;;1.23;1.13;;;10.00;99.90;;;9.57;100.00;97982.38;5034498;28;20029;-40
2023/09/24 00:48:32;;;;;;;3.13;1.35;;;10.00;99.90;;;9.49;100.00;97977.28;5035397;28;20056;-39
2023/09/24 00:51:01;;;;;;;3.30;1.70;;;9.90;99.90;;;9.52;100.00;97977.22;5037589;28;20052;-39
2023/09/24 00:53:29;;;;;;;2.78;1.30;;;9.90;99.90;;;9.43;100.00;97972.16;5033929;28;20683;-39
2023/09/24 00:55:56;;;;;;;2.28;1.50;;;9.90;99.90;;;9.49;100.00;97979.91;5033598;28;20377;-38
2023/09/24 00:58:23;;;;;;;2.20;1.20;;;9.90;99.90;;;9.49;100.00;97982.53;5032994;28;20037;-39
2023/09/24 01:00:55;;;;;;;2.03;1.40;;;9.90;99.90;;;9.47;100.00;97979.09;5033115;28;20079;-41
2023/09/24 01:03:28;;;;;;;7.18;2.65;;;9.90;99.90;;;9.41;100.00;97976.59;5033592;28;20036;-40
2023/09/24 01:05:54;;;;;;;5.50;2.50;;;9.90;99.90;;;9.41;100.00;97989.78;5038625;28;20033;-39
2023/09/24 01:08:23;;;;;;;5.05;1.83;;;9.80;99.90;;;9.42;100.00;97995.00;5030982;28;20125;-39
2023/09/24 01:10:49;;;;;;;3.65;1.80;;;9.80;99.90;;;9.39;100.00;98002.97;5035329;28;20032;-40
2023/09/24 01:13:20;;;;;;;9.57;4.30;;;9.80;99.90;;;9.38;100.00;98010.88;5032913;28;20504;-38
2023/09/24 01:15:49;;;;;;;8.80;4.40;;;9.80;99.90;;;9.23;100.00;97989.28;5032424;28;20397;-37
2023/09/24 01:18:17;;;;;;;3.90;2.25;;;9.70;99.90;;;9.30;100.00;98001.41;5029768;28;20149;-37
2023/09/24 01:20:43;;;;;;;3.30;2.08;;;9.70;99.90;;;9.28;100.00;98008.47;5026158;28;20033;-38
2023/09/24 01:23:14;;;;;;;3.75;1.77;;;9.70;99.90;;;9.27;100.00;98006.72;5029906;28;20036;-38
2023/09/24 01:25:42;;;;;;;4.30;1.60;;;9.70;99.90;;;9.26;100.00;98004.13;5034568;28;20029;-38
2023/09/24 01:28:08;;;;;;;3.50;1.30;;;9.70;99.90;;;9.23;100.00;98004.22;5019521;28;20032;-38
2023/09/24 01:30:34;;;;;;;2.28;1.17;;;9.70;99.90;;;9.23;100.00;97999.81;5036826;28;20075;-38
2023/09/24 01:33:01;;;;;;;3.72;1.20;;;9.60;99.90;;;9.20;100.00;98001.63;5035841;28;20495;-38
2023/09/24 01:35:33;;;;;;;3.03;1.52;;;9.60;99.90;;;9.20;100.00;97996.38;5033447;28;20037;-39
2023/09/24 01:38:06;;;;;;;3.47;1.30;;;9.60;99.90;;;9.15;100.00;97993.81;5037190;28;20525;-38
2023/09/24 01:40:38;;;;;;;2.10;1.20;;;9.60;99.90;;;9.13;100.00;97993.88;5032078;28;20041;-39
2023/09/24 01:43:08;;;;;;;;;;;9.50;99.90;;;9.07;100.00;97994.00;5015858;28;20032;-38
2023/09/24 01:45:38;;;;;;;3.10;1.20;;;9.50;99.90;;;9.08;100.00;98005.38;5032418;28;19924;-38
2023/09/24 01:48:05;;;;;;;2.08;1.38;;;9.50;99.90;;;9.07;100.00;98006.31;5034310;28;20075;-38
2023/09/24 01:50:37;;;;;;;2.95;1.27;;;9.50;99.90;;;9.02;100.00;97995.84;5010336;28;20475;-38
2023/09/24 01:53:05;;;;;;;1.70;1.13;;;9.50;99.90;;;9.00;100.00;97996.81;5035538;28;20021;-38
2023/09/24 01:55:31;;;;;;;3.53;1.30;;;9.40;99.90;;;9.01;100.00;98006.41;5033631;28;20481;-38
2023/09/24 01:58:02;;;;;;;3.03;1.08;;;9.40;99.90;;;8.96;100.00;98004.75;5035286;28;20370;-38
2023/09/24 02:00:28;;;;;;;4.05;1.40;;;9.40;99.90;;;8.90;100.00;98006.63;5032832;28;20035;-39
2023/09/24 02:02:59;;;;;;;3.88;1.05;;;9.40;99.90;;;8.93;100.00;98011.84;5035195;28;20029;-38
2023/09/24 02:05:33;;;;;;;2.47;1.53;;;9.30;99.90;;;8.92;100.00;98007.50;5033944;28;20040;-38
2023/09/24 02:08:05;;;;;;;2.20;1.13;;;9.30;99.90;;;8.85;100.00;97996.22;5036110;28;20028;-38
2023/09/24 02:10:31;;;;;;;3.05;1.00;;;9.40;99.90;;;8.87;100.00;98004.09;5014343;28;20454;-38
2023/09/24 02:12:57;;;;;;;2.35;1.20;;;9.30;99.90;;;8.85;100.00;98004.13;5033486;28;20140;-38
2023/09/24 02:15:25;;;;;;;2.28;1.40;;;9.30;99.90;;;8.81;100.00;98002.47;5033376;28;20041;-39
2023/09/24 02:17:50;;;;;;;1.88;1.15;;;9.20;99.90;;;8.77;100.00;98013.91;5030981;28;20025;-38
2023/09/24 02:20:27;;;;;;;2.33;1.48;;;9.20;99.90;;;8.74;100.00;98006.06;5028553;28;20039;-38
2023/09/24 02:23:37;;;;;;;2.25;1.50;;;9.20;99.90;;;8.69;100.00;98018.47;5035574;28;20025;-38
2023/09/24 02:26:03;;;;;;;2.10;1.38;;;9.20;99.90;;;8.66;100.00;98014.13;5008459;28;20041;-38
2023/09/24 02:28:28;;;;;;;2.75;1.15;;;9.10;99.90;;;8.64;100.00;98020.31;5035012;28;20449;-38
2023/09/24 02:30:55;;;;;;;1.50;1.30;;;9.10;99.90;;;8.62;100.00;98028.22;5031672;28;20025;-38
2023/09/24 02:33:21;;;;;;;1.60;1.13;;;9.10;99.90;;;8.60;100.00;98025.63;5028019;28;20037;-39
2023/09/24 02:35:49;;;;;;;3.15;1.50;;;9.10;99.90;;;8.58;100.00;98018.69;5031322;28;20484;-39
2023/09/24 02:38:14;;;;;;;3.13;1.17;;;9.00;99.90;;;8.55;100.00;98027.47;5031536;28;20562;-39
2023/09/24 02:40:40;;;;;;;2.45;1.40;;;9.00;99.90;;;8.53;100.00;98026.63;5037557;28;20362;-38
2023/09/24 02:43:06;;;;;;;1.63;1.30;;;9.00;99.90;;;8.52;100.00;98024.88;5031987;28;20041;-38
2023/09/24 02:45:33;;;;;;;2.75;1.33;;;9.00;99.90;;;8.53;100.00;98025.78;5029588;28;20045;-38
2023/09/24 02:47:59;;;;;;;2.90;1.30;;;9.00;99.90;;;8.49;100.00;98026.72;5030591;28;20107;-38
2023/09/24 02:50:28;;;;;;;2.15;1.35;;;9.00;99.90;;;8.54;100.00;98028.38;5031374;28;20048;-40
2023/09/24 02:52:59;;;;;;;1.65;1.33;;;9.00;99.90;;;8.55;100.00;98024.00;5031502;28;20038;-38
2023/09/24 02:55:27;;;;;;;3.90;1.55;;;9.00;99.90;;;8.55;100.00;98027.47;5029720;28;20120;-38
2023/09/24 02:57:52;;;;;;;3.72;1.85;;;9.00;99.90;;;8.53;100.00;98023.16;5034696;28;20029;-39
2023/09/24 03:00:43;;;;;;;5.13;1.95;;;9.00;99.90;;;8.55;100.00;98026.63;5032707;28;20036;-39
2023/09/24 03:03:09;;;;;;;4.03;2.00;;;9.00;99.90;;;8.51;100.00;98020.53;5029120;28;20119;-38
2023/09/24 03:05:36;;;;;;;4.15;2.10;;;9.00;99.90;;;8.56;100.00;98033.59;5031893;28;20538;-38
2023/09/24 03:08:03;;;;;;;3.58;1.90;;;9.00;99.90;;;8.56;100.00;98034.47;5027573;28;20501;-38
2023/09/24 03:10:35;;;;;;;4.25;2.00;;;9.00;99.90;;;8.56;100.00;98042.38;5031525;28;20021;-39
2023/09/24 03:13:04;;;;;;;3.17;1.90;;;9.00;99.90;;;8.55;100.00;98042.38;5031041;28;20591;-38
2023/09/24 03:15:31;;;;;;;3.53;2.15;;;9.00;99.90;;;8.55;100.00;98043.25;5008212;28;20069;-38
2023/09/24 03:17:58;;;;;;;5.65;2.08;;;9.00;99.90;;;8.54;100.00;98049.41;5029497;28;20079;-40
2023/09/24 03:20:25;;;;;;;3.25;1.92;;;9.00;99.90;;;8.35;100.00;98026.94;5028057;28;20037;-39
2023/09/24 03:22:54;;;;;;;5.50;2.20;;;9.00;99.90;;;8.51;100.00;98056.50;5032190;28;20481;-38
2023/09/24 03:25:25;;;;;;;4.05;2.10;;;8.90;99.90;;;8.46;100.00;98051.31;5026415;28;20572;-39
2023/09/24 03:27:57;;;;;;;4.15;2.05;;;8.90;99.90;;;8.44;100.00;98061.00;5032360;28;20486;-38
2023/09/24 03:30:23;;;;;;;3.35;2.05;;;8.90;99.90;;;8.41;100.00;98064.47;5027259;28;22965;-40
2023/09/24 03:32:51;;;;;;;5.85;2.33;;;8.90;99.90;;;8.39;100.00;98071.53;5030085;28;20025;-38
2023/09/24 03:35:21;;;;;;;3.50;2.10;;;8.90;99.90;;;8.32;100.00;98061.16;5025935;28;20477;-37
2023/09/24 03:37:47;;;;;;;4.00;2.53;;;8.90;99.90;;;8.37;100.00;98075.97;5031770;28;20064;-38
2023/09/24 03:40:21;;;;;;;3.85;2.10;;;8.80;99.90;;;8.35;100.00;98072.50;5016656;28;20033;-38
2023/09/24 03:42:47;;;;;;;5.22;2.25;;;8.80;99.90;;;8.33;100.00;98076.06;5032471;28;20117;-39
2023/09/24 03:45:16;;;;;;;5.30;2.50;;;8.80;99.90;;;8.33;100.00;98076.91;5043269;22;20056;-39
2023/09/24 03:47:42;;;;;;;3.53;2.53;;;8.80;99.90;;;8.20;100.00;98055.22;5029272;28;20672;-38
2023/09/24 03:50:13;;;;;;;4.03;2.60;;;8.80;99.90;;;8.31;100.00;98081.34;5024201;28;20064;-40
2023/09/24 03:52:43;;;;;;;7.57;2.83;;;8.80;99.90;;;8.28;100.00;98072.63;5015908;28;20113;-40
2023/09/24 03:55:09;;;;;;;4.20;2.67;;;8.70;99.90;;;8.22;100.00;98070.97;5014816;28;20264;-39
2023/09/24 03:57:37;;;;;;;7.20;2.72;;;8.70;99.90;;;8.26;100.00;98087.56;5013388;28;20167;-42
2023/09/24 04:00:08;;;;;;;4.35;2.55;;;8.70;99.90;;;8.21;100.00;98090.25;5019669;28;20034;-39
2023/09/24 04:02:35;;;;;;;6.95;2.70;;;8.70;99.90;;;8.19;100.00;98092.91;5016431;28;20858;-38
2023/09/24 04:05:00;;;;;;;4.68;2.45;;;8.70;99.90;;;8.18;100.00;98101.69;5011386;28;20133;-40
2023/09/24 04:07:27;;;;;;;5.13;2.65;;;8.70;99.90;;;8.17;100.00;98099.09;5015466;28;20623;-38
2023/09/24 04:09:54;;;;;;;3.17;2.20;;;8.70;99.90;;;8.18;100.00;98109.56;5020042;28;21714;-38
2023/09/24 04:12:20;;;;;;;3.85;2.40;;;8.70;99.90;;;8.11;100.00;98099.16;5013558;28;20036;-39
2023/09/24 04:14:45;;;;;;;3.72;2.63;;;8.60;99.90;;;8.16;100.00;98110.47;5013759;28;20037;-39
2023/09/24 04:17:11;;;;;;;3.28;2.28;;;8.70;99.90;;;8.06;100.00;98088.75;5011447;28;20540;-39
2023/09/24 04:19:37;;;;;;;4.28;2.97;;;8.70;99.90;;;8.15;100.00;98117.50;5015519;28;20059;-39
2023/09/24 04:22:03;;;;;;;3.78;2.47;;;8.70;99.90;;;8.13;100.00;98119.28;5009582;28;20048;-39
2023/09/24 04:24:28;;;;;;;6.88;2.60;;;8.60;99.90;;;8.08;100.00;98118.50;5008398;28;20057;-39
2023/09/24 04:26:54;;;;;;;5.10;2.78;;;8.60;99.90;;;8.12;100.00;98120.16;5007446;28;20037;-41
2023/09/24 04:29:20;;;;;;;3.78;2.28;;;8.60;99.90;;;8.11;100.00;98121.06;5006022;28;20445;-39
2023/09/24 04:31:46;;;;;;;3.70;2.35;;;8.60;99.90;;;8.10;100.00;98135.09;5008391;28;20164;-40
2023/09/24 04:34:13;;;;;;;3.03;1.83;;;8.60;99.90;;;8.08;100.00;98131.63;5011605;28;20040;-40
2023/09/24 04:36:40;;;;;;;4.85;2.25;;;8.60;99.90;;;8.06;100.00;98137.78;5011777;28;20087;-39
2023/09/24 04:39:09;;;;;;;3.28;2.22;;;8.60;99.90;;;8.04;100.00;98135.19;5013550;28;20565;-39
2023/09/24 04:41:36;;;;;;;3.75;1.95;;;8.60;99.90;;;8.02;100.00;98134.31;5016372;28;20037;-40
2023/09/24 04:44:03;;;;;;;4.00;1.80;;;8.50;99.90;;;8.00;100.00;98134.38;5018699;28;20112;-39
2023/09/24 04:46:28;;;;;;;3.95;2.10;;;8.50;99.90;;;8.00;100.00;98136.13;5015765;28;20043;-39
2023/09/24 04:48:54;;;;;;;3.35;1.90;;;8.50;99.90;;;7.97;100.00;98136.19;5016795;28;20033;-38
2023/09/24 04:51:20;;;;;;;4.10;2.00;;;8.50;99.90;;;7.97;100.00;98150.19;5015674;28;20029;-39
2023/09/24 04:53:45;;;;;;;2.47;1.80;;;8.50;99.90;;;7.92;100.00;98144.13;5013324;28;20052;-39
2023/09/24 04:56:11;;;;;;;3.20;1.95;;;8.50;99.90;;;7.93;100.00;98147.59;5017218;28;20064;-40
2023/09/24 04:58:37;;;;;;;4.78;2.08;;;8.50;99.90;;;7.91;100.00;98147.63;5021975;28;20091;-39
2023/09/24 05:01:07;;;;;;;5.13;2.38;;;8.40;99.90;;;7.91;100.00;98150.25;5020310;28;20817;-39
2023/09/24 05:03:35;;;;;;;3.50;2.15;;;8.40;99.90;;;7.90;100.00;98151.16;5019291;28;20580;-39
2023/09/24 05:06:03;;;;;;;3.63;1.92;;;8.40;99.90;;;7.89;100.00;98149.41;5018723;28;20366;-39
2023/09/24 05:08:29;;;;;;;4.18;2.47;;;8.40;99.90;;;7.90;100.00;98152.91;5018111;28;20044;-41
2023/09/24 05:10:55;;;;;;;2.63;1.85;;;8.40;99.90;;;7.88;100.00;98157.28;5022149;28;20144;-39
2023/09/24 05:13:21;;;;;;;5.30;2.33;;;8.40;99.90;;;7.90;100.00;98152.91;5019013;28;20063;-39
2023/09/24 05:15:54;;;;;;;4.15;2.17;;;8.40;99.90;;;7.92;100.00;98164.28;5017462;28;20379;-40
2023/09/24 05:18:29;;;;;;;3.08;2.00;;;8.40;99.90;;;7.93;100.00;98165.97;5016164;28;20441;-39
2023/09/24 05:20:55;;;;;;;2.97;2.45;;;8.50;99.90;;;7.94;100.00;98162.47;5017538;28;20037;-39
2023/09/24 05:23:21;;;;;;;4.13;2.20;;;8.40;99.90;;;7.95;100.00;98174.72;5018450;28;20556;-39
2023/09/24 05:25:49;;;;;;;3.67;2.33;;;8.40;99.90;;;7.95;100.00;98172.09;5017124;28;20702;-39
2023/09/24 05:28:14;;;;;;;5.03;2.25;;;8.40;99.90;;;7.95;100.00;98172.09;5021162;28;20025;-39
2023/09/24 05:30:40;;;;;;;2.70;2.10;;;8.40;99.90;;;7.94;100.00;98176.47;5013772;28;20025;-38
2023/09/24 05:33:07;;;;;;;3.10;1.98;;;8.40;99.90;;;7.95;100.00;98182.59;5022308;28;20025;-40
2023/09/24 05:35:32;;;;;;;2.67;1.92;;;8.50;99.90;;;7.97;100.00;98173.81;5013367;28;20048;-38
2023/09/24 05:37:58;;;;;;;4.22;2.22;;;8.50;99.90;;;8.01;100.00;98178.13;5016566;28;20030;-40
2023/09/24 05:40:24;;;;;;;4.47;2.40;;;8.50;99.90;;;8.05;100.00;98173.69;5018119;28;20037;-39
2023/09/24 05:42:50;;;;;;;6.20;2.28;;;8.50;99.90;;;8.08;100.00;98178.91;5019221;28;20033;-39
2023/09/24 05:45:16;;;;;;;2.78;1.83;;;8.60;99.90;;;8.11;100.00;98178.88;5018527;28;20030;-39
2023/09/24 05:47:42;;;;;;;2.35;1.80;;;8.60;99.90;;;8.13;100.00;98177.09;5013736;28;20469;-41
2023/09/24 05:50:08;;;;;;;4.93;2.17;;;8.70;99.90;;;8.16;100.00;98184.91;5015656;28;20349;-38
2023/09/24 05:52:34;;;;;;;3.38;2.10;;;8.60;99.90;;;8.22;100.00;98176.94;5014064;28;20026;-39
2023/09/24 05:54:59;;;;;;;3.80;2.05;;;8.70;99.90;;;8.27;100.00;98174.22;5019636;28;20111;-38
2023/09/24 05:57:26;;;;;;;3.63;2.33;;;8.80;99.90;;;8.33;100.00;98181.19;5016595;28;20013;-39
2023/09/24 05:59:54;;;;;;;3.40;1.95;;;8.80;99.90;;;8.37;100.00;98178.47;5016154;28;20044;-40
2023/09/24 06:02:24;;;;;;;3.47;2.00;;;8.90;99.90;;;8.44;100.00;98181.03;5014486;28;20323;-39
2023/09/24 06:04:50;;;;;;;3.65;2.35;;;8.90;99.90;;;8.50;100.00;98173.06;5014858;28;20108;-39
2023/09/24 06:07:16;;;;;;;3.67;2.20;;;9.00;99.90;;;8.57;100.00;98182.56;5014165;28;20397;-39
2023/09/24 06:09:42;;;;;;;5.68;2.42;;;9.00;99.90;;;8.61;100.00;98186.88;5013634;28;20021;-38
2023/09/24 06:12:07;;;;;;;2.85;2.03;;;9.10;99.90;;;8.68;100.00;98185.03;5019079;28;20260;-38
2023/09/24 06:14:33;;;;;;;3.65;2.08;;;9.10;99.90;;;8.76;100.00;98183.16;5017579;28;20287;-37
2023/09/24 06:16:59;;;;;;;2.83;1.90;;;9.20;99.90;;;8.84;100.00;98185.63;5013639;28;20045;-38
2023/09/24 06:19:25;;;;;;;4.18;1.95;;;9.30;99.90;;;8.91;100.00;98196.00;5012998;28;20252;-39
2023/09/24 06:21:51;;;;;;;3.75;2.10;;;9.40;99.90;;;8.97;100.00;98195.94;5010805;28;20424;-40
2023/09/24 06:24:17;;;;;;;5.50;2.13;;;9.40;99.90;;;9.03;100.00;98194.94;5019628;28;20167;-39
2023/09/24 06:26:43;;;;;;;4.47;2.50;;;9.50;99.90;;;9.08;100.00;98201.00;5010739;28;20036;-38
2023/09/24 06:29:09;;;;;;;4.32;2.20;;;9.50;99.90;;;9.14;100.00;98198.22;5015907;28;20038;-38
2023/09/24 06:31:35;;;;;;;6.93;2.80;;;9.60;99.90;;;9.18;100.00;98201.69;5015670;28;20462;-39
2023/09/24 06:34:00;;;;;;;3.90;2.63;;;9.70;99.90;;;9.25;100.00;98205.94;5009471;28;20427;-39
2023/09/24 06:36:26;;;;;;;5.28;3.10;;;9.70;99.90;;;9.32;100.00;98199.66;5012006;28;20094;-39
2023/09/24 06:38:52;;;;;;;3.90;2.75;;;9.80;99.90;;;9.41;100.00;98208.28;5016715;28;20042;-38
2023/09/24 06:41:18;;;;;;;5.30;2.70;;;9.90;99.90;;;9.46;100.00;98209.06;5018378;28;20061;-40
2023/09/24 06:43:43;;;;;;;3.88;2.25;;;9.90;99.90;;;9.52;100.00;98211.56;5014844;28;20038;-38
2023/09/24 06:46:09;;;;;;;2.58;1.80;;;10.00;99.90;;;9.58;100.00;98215.84;5014283;28;20045;-40
2023/09/24 06:48:35;;;;;;;2.95;1.95;;;10.10;99.90;;;9.64;100.00;98211.31;5015096;28;20033;-39
2023/09/24 06:51:09;;;;;;;2.78;1.80;;;10.10;99.90;;;9.65;100.00;98207.78;5013430;28;20029;-39
2023/09/24 06:53:38;;;;;;;6.93;1.80;;;10.20;99.90;;;9.75;100.00;98219.00;5010963;28;20052;-41
2023/09/24 06:56:07;;;;;;;4.00;2.30;;;10.20;99.90;;;9.78;100.00;98213.69;5012886;28;21276;-40
2023/09/24 06:58:35;;;;;;;4.82;2.30;;;10.30;99.90;;;9.78;100.00;98210.16;5016925;28;20573;-39
2023/09/24 07:01:03;;;;;;;3.33;1.85;;;10.30;99.90;;;9.86;100.00;98218.78;5012528;28;20034;-39
2023/09/24 07:03:30;;;;;;;2.58;1.60;;;10.30;99.90;;;9.91;100.00;98209.88;5009393;28;20071;-39
2023/09/24 07:05:56;;;;;;;2.35;1.88;;;10.40;99.90;;;9.89;100.00;98209.06;5006141;28;20426;-40
2023/09/24 07:08:22;;;;;;;4.00;2.20;;;10.40;99.90;;;10.01;100.00;98217.59;5013349;28;20031;-41
2023/09/24 07:11:20;;;;;;;3.58;1.80;;;10.50;99.90;;;10.08;100.00;98224.47;5016361;28;20037;-39
2023/09/24 07:13:46;;;;;;;5.43;1.92;;;10.60;99.90;;;10.13;100.00;98218.19;5014685;28;20144;-41
2023/09/24 07:16:12;;;;;;;3.08;1.85;;;10.60;99.90;;;10.24;100.00;98223.22;5013774;28;20100;-39
2023/09/24 07:18:38;;;;;;;4.00;2.28;;;10.70;99.90;;;10.32;100.00;98220.47;5011188;28;20325;-39
2023/09/24 07:21:05;;;;;;;3.38;2.28;;;10.80;99.90;;;10.32;100.00;98221.31;5018982;28;20666;-39
2023/09/24 07:23:30;;;;;;;3.63;2.05;;;10.90;99.90;;;10.44;100.00;98225.41;5013462;28;20112;-40
2023/09/24 07:25:56;;;;;;;7.30;2.20;;;11.00;99.90;;;10.49;100.00;98239.38;5014395;28;20043;-39
2023/09/24 07:28:24;;;;;;;6.63;2.22;;;11.00;99.90;;;10.58;100.00;98234.81;5010768;28;20405;-39
2023/09/24 07:30:52;;;;;;;4.47;2.53;;;11.10;99.90;;;10.65;100.00;98234.59;5016525;28;20056;-39
2023/09/24 07:33:17;;;;;;;4.50;2.28;;;11.20;99.90;;;10.76;100.00;98234.34;5016872;28;20067;-39
2023/09/24 07:35:43;;;;;;;3.97;2.35;;;11.30;99.90;;;10.85;100.00;98234.13;5013952;28;20406;-40
2023/09/24 07:38:09;;;;;;;5.13;2.22;;;11.40;99.90;;;10.96;100.00;98235.63;5014967;28;20033;-38
2023/09/24 07:40:34;;;;;;;5.97;2.28;;;11.40;99.90;;;11.03;100.00;98242.50;5021847;28;20048;-39
2023/09/24 07:43:00;;;;;;;3.97;2.30;;;11.50;99.90;;;11.12;100.00;98234.34;5005872;28;20683;-39
2023/09/24 07:45:26;;;;;;;5.28;2.10;;;11.60;99.90;;;11.19;100.00;98240.31;5000528;28;20052;-39
2023/09/24 07:47:52;;;;;;;4.53;2.42;;;11.70;99.90;;;11.27;100.00;98238.38;5002009;28;20210;-39
2023/09/24 07:50:17;;;;;;;4.95;2.38;;;11.70;99.90;;;11.35;100.00;98241.66;5012105;28;20378;-38
2023/09/24 07:52:43;;;;;;;3.83;1.90;;;11.80;99.90;;;11.43;100.00;98247.63;5012869;28;20048;-39
2023/09/24 07:55:09;;;;;;;4.32;2.30;;;11.90;99.90;;;11.54;100.00;98251.72;5018869;28;20595;-40
2023/09/24 07:57:35;;;;;;;4.80;1.90;;;12.00;99.90;;;11.58;100.00;98248.09;5020785;28;20028;-40
2023/09/24 08:00:01;;;;;;;3.35;1.88;;;12.10;99.90;;;11.66;100.00;98246.09;5017517;28;20041;-39
2023/09/24 08:02:27;;;;;;;2.15;1.45;;;12.10;99.90;;;11.73;100.00;98246.81;5014036;28;20086;-39
2023/09/24 08:04:52;;;;;;;2.63;1.48;;;12.20;99.90;;;11.81;100.00;98239.53;5012398;28;20564;-40
2023/09/24 08:07:18;;;;;;;2.25;1.42;;;12.20;99.90;;;11.91;100.00;98243.66;5019757;28;20792;-39
2023/09/24 08:09:44;;;;;;;3.55;1.70;;;12.40;99.90;;;12.05;100.00;98245.06;5007947;28;20028;-38
2023/09/24 08:12:09;;;;;;;3.90;1.50;;;12.40;99.90;;;12.14;100.00;98247.41;5013950;28;20213;-39
2023/09/24 08:14:35;;;;;;;4.13;1.65;;;12.50;99.90;;;12.30;100.00;98250.47;5016466;28;20092;-39
2023/09/24 08:17:02;;;;;;;3.85;1.52;;;12.70;99.90;;;12.41;100.00;98249.22;5015686;28;20389;-39
2023/09/24 08:19:30;;;;;;;4.00;1.30;;;12.80;99.90;;;12.58;100.00;98254.00;5011820;28;20165;-39
2023/09/24 08:21:58;;;;;;;3.30;1.60;;;13.00;99.90;;;12.71;100.00;98249.19;5014508;28;20032;-39
2023/09/24 08:24:24;;;;;;;2.20;1.30;;;13.10;99.90;;;12.87;100.00;98249.56;5015668;28;20065;-40
2023/09/24 08:26:50;;;;;;;2.85;1.65;;;13.20;99.90;;;13.03;100.00;98255.22;5003499;28;20055;-39
2023/09/24 08:29:15;;;;;;;4.75;1.52;;;13.30;99.90;;;13.16;100.00;98251.22;5017184;28;20021;-40
2023/09/24 08:31:41;;;;;;;3.45;1.75;;;13.40;99.90;;;13.28;100.00;98249.06;4999104;28;20471;-39
2023/09/24 08:34:07;;;;;;;3.53;1.58;;;13.50;99.90;;;13.39;100.00;98262.88;5007979;28;20341;-40
2023/09/24 08:36:33;;;;;;;1.90;1.20;;;13.70;99.90;;;13.48;100.00;98253.72;5013625;28;20037;-39
2023/09/24 08:38:58;;;;;;;4.15;1.40;;;13.80;99.90;;;13.59;100.00;98261.31;5017281;28;20073;-39
2023/09/24 08:41:24;;;;;;;3.13;1.38;;;13.80;99.90;;;13.62;100.00;98254.13;5014875;28;20056;-39
2023/09/24 08:43:56;;;;;;;2.65;1.27;;;13.90;99.90;;;13.78;100.00;98265.00;5002948;28;20444;-41
2023/09/24 08:46:22;;;;;;;3.65;1.52;;;14.00;99.90;;;13.91;100.00;98268.97;5013216;28;20096;-39
2023/09/24 08:48:49;;;;;;;4.43;1.23;;;14.10;99.90;;;13.93;100.00;98260.94;5019616;28;20064;-39
2023/09/24 08:51:16;;;;;;;4.03;1.60;;;14.20;99.90;;;14.07;100.00;98273.72;5022389;28;20493;-38
2023/09/24 08:53:41;;;;;;;4.57;1.58;;;14.30;99.90;;;14.07;100.00;98257.81;5015229;28;20219;-39
2023/09/24 08:56:08;;;;;;;4.88;1.35;;;14.30;99.90;;;14.15;100.00;98265.47;5018569;28;20440;-38
2023/09/24 08:58:33;;;;;;;3.22;1.88;;;14.40;99.90;;;14.17;100.00;98269.78;5014928;28;20032;-39
2023/09/24 09:01:08;;;;;;;4.05;1.58;;;14.40;99.90;;;14.20;100.00;98252.91;5013699;28;20041;-40
2023/09/24 09:03:34;;;;;;;3.05;1.40;;;14.40;99.90;;;14.24;100.00;98267.75;5019747;28;20042;-39
2023/09/24 09:05:59;;;;;;;2.13;1.10;;;14.50;99.90;;;14.24;100.00;98252.69;4990300;28;20049;-38
2023/09/24 09:08:25;;;;;;;3.00;1.50;;;14.50;99.90;;;14.35;100.00;98260.25;5000680;28;20055;-40
2023/09/24 09:10:51;;;;;;;3.13;1.52;;;14.60;99.90;;;14.36;100.00;98255.81;5018169;28;20052;-40
2023/09/24 09:13:21;;;;;;;3.17;1.42;;;14.60;99.90;;;14.42;100.00;98259.09;5013851;28;20738;-40
2023/09/24 09:16:08;;;;;;;1.98;1.20;;;14.60;99.90;;;14.48;100.00;98257.97;5021085;28;20021;-39
2023/09/24 09:18:35;;;;;;;4.40;1.38;;;14.70;99.90;;;14.56;100.00;98263.00;5005088;28;20477;-39
2023/09/24 09:21:00;;;;;;;4.03;1.40;;;14.80;99.90;;;14.55;100.00;98251.50;5009828;28;20397;-38
2023/09/24 09:23:31;;;;;;;4.13;1.70;;;14.80;99.90;;;14.62;100.00;98249.50;5006701;28;20025;-39
2023/09/24 09:25:56;;;;;;;5.32;1.75;;;14.80;99.90;;;14.68;100.00;98258.09;5012002;28;20037;-39
2023/09/24 09:28:25;;;;;;;3.15;1.63;;;14.90;99.90;;;14.72;100.00;98258.00;5005370;28;20153;-40
2023/09/24 09:31:07;;;;;;;2.90;1.30;;;14.90;99.90;;;14.78;100.00;98250.63;5003476;28;20300;-40
2023/09/24 09:33:40;;;;;;;6.65;1.88;;;15.00;99.90;;;14.77;100.00;98253.34;5009774;28;20309;-39
2023/09/24 09:36:30;;;;;;;3.05;1.40;;;15.00;99.90;;;14.84;100.00;98244.19;5009597;28;20406;-39
2023/09/24 09:38:57;;;;;;;2.60;1.42;;;15.00;99.90;;;14.84;98.69;98241.53;5012206;28;20123;-40
2023/09/24 09:41:24;;;;;;;2.83;1.20;;;15.10;99.90;;;14.93;97.18;98245.63;5006360;28;20329;-39
2023/09/24 09:43:52;;;;;;;2.65;1.48;;;15.10;99.90;;;15.00;97.21;98249.75;5036825;23;20331;-38
2023/09/24 09:46:21;;;;;;;3.58;1.67;;;15.20;99.90;;;15.00;93.89;98245.31;5044664;28;20075;-37
2023/09/24 09:48:55;;;;;;;4.57;1.60;;;15.30;99.90;;;14.97;86.36;98248.09;5048708;28;20040;-37
2023/09/24 09:51:22;;;;;;;2.53;1.20;;;15.20;99.90;;;15.00;90.65;98242.66;5028696;28;20029;-37
2023/09/24 09:53:50;;;;;;;3.33;1.35;;;15.20;99.90;;;15.05;91.88;98245.97;5019856;28;20114;-39
2023/09/24 09:56:17;;;;;;;2.28;1.33;;;15.30;99.90;;;15.05;93.07;98227.38;5022105;28;20080;-37
2023/09/24 09:58:47;;;;;;;4.60;1.83;;;15.30;99.90;;;15.15;96.94;98238.50;5029376;28;20041;-37
2023/09/24 10:01:13;;;;;;;2.85;1.20;;;15.40;99.90;;;15.23;95.31;98238.16;5012487;28;20452;-37
2023/09/24 10:03:42;;;;;;;5.28;1.35;;;15.50;99.90;;;15.25;86.10;98234.53;5025816;28;20095;-37
2023/09/24 10:06:10;;;;;;;3.63;1.70;;;15.50;99.90;;;15.25;93.85;98221.25;5022763;28;20036;-37
2023/09/24 10:08:45;;;;;;;5.18;1.50;;;15.60;99.90;;;15.43;88.59;98240.84;5028439;28;20374;-40
2023/09/24 10:11:32;;;;;;;5.10;2.10;;;15.70;99.90;;;15.46;86.18;98235.38;5025944;28;20029;-38
2023/09/24 10:14:05;;;;;;;3.80;1.35;;;15.70;99.90;;;15.63;90.71;98231.09;5025199;28;20398;-39
2023/09/24 10:16:37;;;;;;;3.67;1.30;;;15.80;99.90;;;15.60;87.97;98234.78;5015916;28;20029;-37
2023/09/24 10:19:11;;;;;;;1.85;1.27;;;15.80;99.90;;;15.62;91.95;98234.72;5013897;28;20033;-38
2023/09/24 10:21:43;;;;;;;3.05;1.05;;;15.90;99.90;;;15.71;92.17;98234.31;5018006;28;20031;-38
2023/09/24 10:24:15;;;;;;;6.07;1.38;;;15.90;99.90;;;15.77;85.06;98239.41;5029645;28;20032;-37
2023/09/24 10:27:03;;;;;;;2.30;1.27;;;16.00;99.90;;;15.75;75.64;98227.94;5024953;28;20091;-38